sensor_id;sensor_type;location;lat;lon;timestamp;P1;durP1;ratioP1;P2;durP2;ratioP2
16416;SDS011;8317;52.186;5.688;2023-03-01T00:00:12;11.97;;;7.27;;
16416;SDS011;8317;52.186;5.688;2023-03-01T00:02:40;10.03;;;7.03;;
16416;SDS011;8317;52.186;5.688;2023-03-01T00:05:08;9.63;;;6.63;;
16416;SDS011;8317;52.186;5.688;2023-03-01T00:07:35;11.20;;;6.90;;
16416;SDS011;8317;52.186;5.688;2023-03-01T00:10:02;10.47;;;7.20;;
16416;SDS011;8317;52.186;5.688;2023-03-01T00:12:31;14.37;;;7.90;;
16416;SDS011;8317;52.186;5.688;2023-03-01T00:14:58;9.17;;;6.07;;
16416;SDS011;8317;52.186;5.688;2023-03-01T00:17:25;8.80;;;6.07;;
16416;SDS011;8317;52.186;5.688;2023-03-01T00:19:53;9.47;;;6.50;;
16416;SDS011;8317;52.186;5.688;2023-03-01T00:22:22;8.83;;;6.53;;
16416;SDS011;8317;52.186;5.688;2023-03-01T00:24:48;8.17;;;6.43;;
16416;SDS011;8317;52.186;5.688;2023-03-01T00:27:15;12.70;;;6.60;;
16416;SDS011;8317;52.186;5.688;2023-03-01T00:29:42;8.43;;;6.47;;
16416;SDS011;8317;52.186;5.688;2023-03-01T00:32:09;11.20;;;7.07;;
16416;SDS011;8317;52.186;5.688;2023-03-01T00:34:36;7.77;;;6.10;;
16416;SDS011;8317;52.186;5.688;2023-03-01T00:37:03;9.40;;;6.70;;
16416;SDS011;8317;52.186;5.688;2023-03-01T00:39:32;8.80;;;6.23;;
16416;SDS011;8317;52.186;5.688;2023-03-01T00:41:59;11.20;;;7.43;;
16416;SDS011;8317;52.186;5.688;2023-03-01T00:44:26;7.67;;;6.33;;
16416;SDS011;8317;52.186;5.688;2023-03-01T00:46:53;8.17;;;6.30;;
16416;SDS011;8317;52.186;5.688;2023-03-01T00:49:20;7.67;;;6.20;;
16416;SDS011;8317;52.186;5.688;2023-03-01T00:51:49;7.27;;;6.30;;
16416;SDS011;8317;52.186;5.688;2023-03-01T00:54:16;10.20;;;6.37;;
16416;SDS011;8317;52.186;5.688;2023-03-01T00:56:44;8.73;;;6.20;;
16416;SDS011;8317;52.186;5.688;2023-03-01T00:59:11;9.23;;;6.20;;
16416;SDS011;8317;52.186;5.688;2023-03-01T01:01:38;7.67;;;6.30;;
16416;SDS011;8317;52.186;5.688;2023-03-01T01:04:06;7.43;;;6.13;;
16416;SDS011;8317;52.186;5.688;2023-03-01T01:06:34;8.97;;;6.90;;
16416;SDS011;8317;52.186;5.688;2023-03-01T01:09:03;9.57;;;6.03;;
16416;SDS011;8317;52.186;5.688;2023-03-01T01:11:30;9.63;;;6.80;;
16416;SDS011;8317;52.186;5.688;2023-03-01T01:13:59;8.17;;;6.70;;
16416;SDS011;8317;52.186;5.688;2023-03-01T01:16:27;10.80;;;7.00;;
16416;SDS011;8317;52.186;5.688;2023-03-01T01:18:55;11.07;;;7.17;;
16416;SDS011;8317;52.186;5.688;2023-03-01T01:21:23;10.37;;;7.83;;
16416;SDS011;8317;52.186;5.688;2023-03-01T01:23:51;10.30;;;7.43;;
16416;SDS011;8317;52.186;5.688;2023-03-01T01:26:19;10.97;;;7.37;;
16416;SDS011;8317;52.186;5.688;2023-03-01T01:28:47;10.40;;;6.67;;
16416;SDS011;8317;52.186;5.688;2023-03-01T01:31:15;8.50;;;7.23;;
16416;SDS011;8317;52.186;5.688;2023-03-01T01:33:43;12.07;;;7.73;;
16416;SDS011;8317;52.186;5.688;2023-03-01T01:36:10;13.27;;;8.20;;
16416;SDS011;8317;52.186;5.688;2023-03-01T01:38:38;9.77;;;7.00;;
16416;SDS011;8317;52.186;5.688;2023-03-01T01:41:05;11.03;;;7.90;;
16416;SDS011;8317;52.186;5.688;2023-03-01T01:43:33;12.07;;;7.53;;
16416;SDS011;8317;52.186;5.688;2023-03-01T01:46:03;11.07;;;7.63;;
16416;SDS011;8317;52.186;5.688;2023-03-01T01:48:34;12.97;;;7.30;;
16416;SDS011;8317;52.186;5.688;2023-03-01T01:51:06;10.87;;;7.57;;
16416;SDS011;8317;52.186;5.688;2023-03-01T01:53:37;10.53;;;7.67;;
16416;SDS011;8317;52.186;5.688;2023-03-01T01:56:06;10.07;;;7.13;;
16416;SDS011;8317;52.186;5.688;2023-03-01T01:58:36;11.67;;;7.87;;
16416;SDS011;8317;52.186;5.688;2023-03-01T02:01:04;10.70;;;7.60;;
16416;SDS011;8317;52.186;5.688;2023-03-01T02:03:33;11.47;;;7.93;;
16416;SDS011;8317;52.186;5.688;2023-03-01T02:06:07;9.53;;;7.80;;
16416;SDS011;8317;52.186;5.688;2023-03-01T02:08:40;11.90;;;8.23;;
16416;SDS011;8317;52.186;5.688;2023-03-01T02:11:08;13.40;;;8.13;;
16416;SDS011;8317;52.186;5.688;2023-03-01T02:13:39;11.13;;;7.43;;
16416;SDS011;8317;52.186;5.688;2023-03-01T02:16:08;9.03;;;7.27;;
16416;SDS011;8317;52.186;5.688;2023-03-01T02:18:38;11.67;;;7.77;;
16416;SDS011;8317;52.186;5.688;2023-03-01T02:21:10;12.70;;;8.00;;
16416;SDS011;8317;52.186;5.688;2023-03-01T02:23:47;11.80;;;7.93;;
16416;SDS011;8317;52.186;5.688;2023-03-01T02:26:17;15.20;;;9.20;;
16416;SDS011;8317;52.186;5.688;2023-03-01T02:28:48;10.60;;;8.17;;
16416;SDS011;8317;52.186;5.688;2023-03-01T02:31:17;13.70;;;7.33;;
16416;SDS011;8317;52.186;5.688;2023-03-01T02:34:03;11.83;;;7.40;;
16416;SDS011;8317;52.186;5.688;2023-03-01T02:36:34;13.97;;;7.87;;
16416;SDS011;8317;52.186;5.688;2023-03-01T02:39:03;13.83;;;8.53;;
16416;SDS011;8317;52.186;5.688;2023-03-01T02:41:33;16.20;;;9.10;;
16416;SDS011;8317;52.186;5.688;2023-03-01T02:44:04;9.63;;;7.87;;
16416;SDS011;8317;52.186;5.688;2023-03-01T02:46:31;10.60;;;7.93;;
16416;SDS011;8317;52.186;5.688;2023-03-01T02:48:58;11.47;;;8.60;;
16416;SDS011;8317;52.186;5.688;2023-03-01T02:51:27;12.30;;;8.87;;
16416;SDS011;8317;52.186;5.688;2023-03-01T02:54:12;12.40;;;8.70;;
16416;SDS011;8317;52.186;5.688;2023-03-01T02:56:46;13.93;;;8.40;;
16416;SDS011;8317;52.186;5.688;2023-03-01T02:59:15;13.57;;;9.77;;
16416;SDS011;8317;52.186;5.688;2023-03-01T03:01:44;12.13;;;9.10;;
16416;SDS011;8317;52.186;5.688;2023-03-01T03:04:13;11.50;;;9.23;;
16416;SDS011;8317;52.186;5.688;2023-03-01T03:06:42;17.73;;;9.30;;
16416;SDS011;8317;52.186;5.688;2023-03-01T03:09:10;10.40;;;8.67;;
16416;SDS011;8317;52.186;5.688;2023-03-01T03:11:37;13.50;;;8.60;;
16416;SDS011;8317;52.186;5.688;2023-03-01T03:14:06;14.83;;;8.83;;
16416;SDS011;8317;52.186;5.688;2023-03-01T03:16:38;13.73;;;9.17;;
16416;SDS011;8317;52.186;5.688;2023-03-01T03:19:06;14.10;;;8.70;;
16416;SDS011;8317;52.186;5.688;2023-03-01T03:21:33;16.77;;;9.00;;
16416;SDS011;8317;52.186;5.688;2023-03-01T03:24:01;12.47;;;8.73;;
16416;SDS011;8317;52.186;5.688;2023-03-01T03:26:28;11.67;;;9.30;;
16416;SDS011;8317;52.186;5.688;2023-03-01T03:28:55;11.70;;;8.37;;
16416;SDS011;8317;52.186;5.688;2023-03-01T03:31:22;10.27;;;8.20;;
16416;SDS011;8317;52.186;5.688;2023-03-01T03:33:51;10.83;;;8.20;;
16416;SDS011;8317;52.186;5.688;2023-03-01T03:36:18;12.60;;;9.67;;
16416;SDS011;8317;52.186;5.688;2023-03-01T03:38:47;11.83;;;8.93;;
16416;SDS011;8317;52.186;5.688;2023-03-01T03:41:15;12.47;;;8.60;;
16416;SDS011;8317;52.186;5.688;2023-03-01T03:43:43;15.57;;;9.50;;
16416;SDS011;8317;52.186;5.688;2023-03-01T03:46:10;11.30;;;8.37;;
16416;SDS011;8317;52.186;5.688;2023-03-01T03:48:39;13.67;;;8.97;;
16416;SDS011;8317;52.186;5.688;2023-03-01T03:51:09;12.17;;;9.20;;
16416;SDS011;8317;52.186;5.688;2023-03-01T03:53:36;15.13;;;9.47;;
16416;SDS011;8317;52.186;5.688;2023-03-01T03:56:04;14.83;;;9.17;;
16416;SDS011;8317;52.186;5.688;2023-03-01T03:58:31;12.20;;;9.13;;
16416;SDS011;8317;52.186;5.688;2023-03-01T04:00:58;13.47;;;9.20;;
16416;SDS011;8317;52.186;5.688;2023-03-01T04:03:27;11.73;;;8.80;;
16416;SDS011;8317;52.186;5.688;2023-03-01T04:05:56;17.33;;;10.23;;
16416;SDS011;8317;52.186;5.688;2023-03-01T04:08:25;12.87;;;9.07;;
16416;SDS011;8317;52.186;5.688;2023-03-01T04:10:58;13.20;;;9.77;;
16416;SDS011;8317;52.186;5.688;2023-03-01T04:13:47;12.17;;;8.63;;
16416;SDS011;8317;52.186;5.688;2023-03-01T04:16:13;13.33;;;8.40;;
16416;SDS011;8317;52.186;5.688;2023-03-01T04:18:40;12.20;;;8.60;;
16416;SDS011;8317;52.186;5.688;2023-03-01T04:21:07;12.77;;;8.70;;
16416;SDS011;8317;52.186;5.688;2023-03-01T04:23:36;16.33;;;8.67;;
16416;SDS011;8317;52.186;5.688;2023-03-01T04:26:06;12.40;;;8.77;;
16416;SDS011;8317;52.186;5.688;2023-03-01T04:28:34;12.37;;;9.63;;
16416;SDS011;8317;52.186;5.688;2023-03-01T04:31:02;16.30;;;8.80;;
16416;SDS011;8317;52.186;5.688;2023-03-01T04:33:38;14.27;;;8.43;;
16416;SDS011;8317;52.186;5.688;2023-03-01T04:36:06;13.27;;;9.00;;
16416;SDS011;8317;52.186;5.688;2023-03-01T04:38:34;14.00;;;8.63;;
16416;SDS011;8317;52.186;5.688;2023-03-01T04:41:04;18.93;;;9.97;;
16416;SDS011;8317;52.186;5.688;2023-03-01T04:43:31;15.43;;;8.93;;
16416;SDS011;8317;52.186;5.688;2023-03-01T04:46:02;17.40;;;9.67;;
16416;SDS011;8317;52.186;5.688;2023-03-01T04:48:31;18.13;;;9.90;;
16416;SDS011;8317;52.186;5.688;2023-03-01T04:50:58;15.13;;;9.63;;
16416;SDS011;8317;52.186;5.688;2023-03-01T04:53:25;18.10;;;9.40;;
16416;SDS011;8317;52.186;5.688;2023-03-01T04:55:55;18.20;;;9.73;;
16416;SDS011;8317;52.186;5.688;2023-03-01T04:58:22;14.47;;;9.73;;
16416;SDS011;8317;52.186;5.688;2023-03-01T05:00:49;15.40;;;8.90;;
16416;SDS011;8317;52.186;5.688;2023-03-01T05:03:16;15.23;;;9.70;;
16416;SDS011;8317;52.186;5.688;2023-03-01T05:05:44;13.10;;;9.07;;
16416;SDS011;8317;52.186;5.688;2023-03-01T05:08:12;11.53;;;8.77;;
16416;SDS011;8317;52.186;5.688;2023-03-01T05:10:43;19.47;;;15.03;;
16416;SDS011;8317;52.186;5.688;2023-03-01T05:13:13;16.60;;;11.07;;
16416;SDS011;8317;52.186;5.688;2023-03-01T05:15:46;14.30;;;10.30;;
16416;SDS011;8317;52.186;5.688;2023-03-01T05:18:13;13.00;;;9.87;;
16416;SDS011;8317;52.186;5.688;2023-03-01T05:20:40;13.43;;;8.87;;
16416;SDS011;8317;52.186;5.688;2023-03-01T05:23:07;13.07;;;9.33;;
16416;SDS011;8317;52.186;5.688;2023-03-01T05:25:34;14.07;;;8.30;;
16416;SDS011;8317;52.186;5.688;2023-03-01T05:28:05;14.20;;;9.57;;
16416;SDS011;8317;52.186;5.688;2023-03-01T05:30:36;14.33;;;9.37;;
16416;SDS011;8317;52.186;5.688;2023-03-01T05:33:04;11.93;;;8.47;;
16416;SDS011;8317;52.186;5.688;2023-03-01T05:35:38;13.73;;;9.47;;
16416;SDS011;8317;52.186;5.688;2023-03-01T05:38:05;14.73;;;10.63;;
16416;SDS011;8317;52.186;5.688;2023-03-01T05:40:32;19.03;;;10.70;;
16416;SDS011;8317;52.186;5.688;2023-03-01T05:43:00;25.03;;;15.27;;
16416;SDS011;8317;52.186;5.688;2023-03-01T05:45:30;17.00;;;11.03;;
16416;SDS011;8317;52.186;5.688;2023-03-01T05:47:59;23.93;;;12.53;;
16416;SDS011;8317;52.186;5.688;2023-03-01T05:50:27;24.53;;;14.00;;
16416;SDS011;8317;52.186;5.688;2023-03-01T05:52:57;28.63;;;14.37;;
16416;SDS011;8317;52.186;5.688;2023-03-01T05:55:24;23.50;;;15.53;;
16416;SDS011;8317;52.186;5.688;2023-03-01T05:57:51;26.07;;;15.43;;
16416;SDS011;8317;52.186;5.688;2023-03-01T06:00:19;32.70;;;17.27;;
16416;SDS011;8317;52.186;5.688;2023-03-01T06:02:48;44.63;;;20.03;;
16416;SDS011;8317;52.186;5.688;2023-03-01T06:05:17;27.50;;;13.80;;
16416;SDS011;8317;52.186;5.688;2023-03-01T06:07:44;23.00;;;14.47;;
16416;SDS011;8317;52.186;5.688;2023-03-01T06:10:11;18.37;;;11.90;;
16416;SDS011;8317;52.186;5.688;2023-03-01T06:12:40;20.10;;;10.57;;
16416;SDS011;8317;52.186;5.688;2023-03-01T06:15:09;20.63;;;11.27;;
16416;SDS011;8317;52.186;5.688;2023-03-01T06:17:37;16.47;;;11.40;;
16416;SDS011;8317;52.186;5.688;2023-03-01T06:20:06;13.77;;;10.47;;
16416;SDS011;8317;52.186;5.688;2023-03-01T06:22:37;17.23;;;9.90;;
16416;SDS011;8317;52.186;5.688;2023-03-01T06:25:04;16.40;;;9.37;;
16416;SDS011;8317;52.186;5.688;2023-03-01T06:27:32;13.83;;;9.40;;
16416;SDS011;8317;52.186;5.688;2023-03-01T06:29:59;14.67;;;9.33;;
16416;SDS011;8317;52.186;5.688;2023-03-01T06:32:26;15.50;;;10.63;;
16416;SDS011;8317;52.186;5.688;2023-03-01T06:34:53;15.43;;;10.53;;
16416;SDS011;8317;52.186;5.688;2023-03-01T06:37:20;15.10;;;10.20;;
16416;SDS011;8317;52.186;5.688;2023-03-01T06:39:48;16.77;;;10.60;;
16416;SDS011;8317;52.186;5.688;2023-03-01T06:42:15;18.50;;;9.97;;
16416;SDS011;8317;52.186;5.688;2023-03-01T06:44:43;17.77;;;10.37;;
16416;SDS011;8317;52.186;5.688;2023-03-01T06:47:10;15.40;;;9.47;;
16416;SDS011;8317;52.186;5.688;2023-03-01T06:49:37;20.27;;;10.90;;
16416;SDS011;8317;52.186;5.688;2023-03-01T06:52:04;18.97;;;11.20;;
16416;SDS011;8317;52.186;5.688;2023-03-01T06:54:31;19.47;;;11.80;;
16416;SDS011;8317;52.186;5.688;2023-03-01T06:56:59;24.50;;;13.33;;
16416;SDS011;8317;52.186;5.688;2023-03-01T06:59:26;32.23;;;14.87;;
16416;SDS011;8317;52.186;5.688;2023-03-01T07:01:53;29.90;;;14.70;;
16416;SDS011;8317;52.186;5.688;2023-03-01T07:04:20;27.67;;;14.20;;
16416;SDS011;8317;52.186;5.688;2023-03-01T07:06:47;34.13;;;15.63;;
16416;SDS011;8317;52.186;5.688;2023-03-01T07:09:20;27.13;;;13.93;;
16416;SDS011;8317;52.186;5.688;2023-03-01T07:11:47;27.33;;;13.97;;
16416;SDS011;8317;52.186;5.688;2023-03-01T07:14:15;30.27;;;14.57;;
16416;SDS011;8317;52.186;5.688;2023-03-01T07:16:42;47.60;;;22.40;;
16416;SDS011;8317;52.186;5.688;2023-03-01T07:19:09;94.50;;;30.23;;
16416;SDS011;8317;52.186;5.688;2023-03-01T07:21:36;81.80;;;27.13;;
16416;SDS011;8317;52.186;5.688;2023-03-01T07:24:04;42.20;;;18.53;;
16416;SDS011;8317;52.186;5.688;2023-03-01T07:26:32;36.67;;;15.27;;
16416;SDS011;8317;52.186;5.688;2023-03-01T07:28:59;98.97;;;34.43;;
16416;SDS011;8317;52.186;5.688;2023-03-01T07:31:27;68.60;;;29.67;;
16416;SDS011;8317;52.186;5.688;2023-03-01T07:33:54;24.80;;;15.67;;
16416;SDS011;8317;52.186;5.688;2023-03-01T07:36:21;20.33;;;12.60;;
16416;SDS011;8317;52.186;5.688;2023-03-01T07:38:49;27.70;;;14.70;;
16416;SDS011;8317;52.186;5.688;2023-03-01T07:41:16;22.33;;;13.57;;
16416;SDS011;8317;52.186;5.688;2023-03-01T07:43:43;23.70;;;14.23;;
16416;SDS011;8317;52.186;5.688;2023-03-01T07:46:10;20.13;;;12.47;;
16416;SDS011;8317;52.186;5.688;2023-03-01T07:48:39;20.90;;;12.17;;
16416;SDS011;8317;52.186;5.688;2023-03-01T07:51:06;19.63;;;12.57;;
16416;SDS011;8317;52.186;5.688;2023-03-01T07:53:34;18.07;;;11.20;;
16416;SDS011;8317;52.186;5.688;2023-03-01T07:56:01;18.87;;;11.10;;
16416;SDS011;8317;52.186;5.688;2023-03-01T07:58:29;16.50;;;11.30;;
16416;SDS011;8317;52.186;5.688;2023-03-01T08:00:56;17.27;;;11.17;;
16416;SDS011;8317;52.186;5.688;2023-03-01T08:03:27;22.17;;;10.73;;
16416;SDS011;8317;52.186;5.688;2023-03-01T08:05:55;18.47;;;10.03;;
16416;SDS011;8317;52.186;5.688;2023-03-01T08:08:22;13.43;;;9.80;;
16416;SDS011;8317;52.186;5.688;2023-03-01T08:10:49;14.63;;;10.40;;
16416;SDS011;8317;52.186;5.688;2023-03-01T08:13:15;18.47;;;12.90;;
16416;SDS011;8317;52.186;5.688;2023-03-01T08:15:47;18.60;;;11.80;;
16416;SDS011;8317;52.186;5.688;2023-03-01T08:18:14;14.93;;;10.53;;
16416;SDS011;8317;52.186;5.688;2023-03-01T08:20:41;20.10;;;10.70;;
16416;SDS011;8317;52.186;5.688;2023-03-01T08:23:10;21.07;;;11.93;;
16416;SDS011;8317;52.186;5.688;2023-03-01T08:25:37;18.73;;;11.73;;
16416;SDS011;8317;52.186;5.688;2023-03-01T08:28:04;14.70;;;10.53;;
16416;SDS011;8317;52.186;5.688;2023-03-01T08:30:31;14.03;;;9.73;;
16416;SDS011;8317;52.186;5.688;2023-03-01T08:32:58;12.90;;;9.23;;
16416;SDS011;8317;52.186;5.688;2023-03-01T08:35:25;17.73;;;9.20;;
16416;SDS011;8317;52.186;5.688;2023-03-01T08:37:52;11.20;;;8.30;;
16416;SDS011;8317;52.186;5.688;2023-03-01T08:40:20;14.63;;;9.80;;
16416;SDS011;8317;52.186;5.688;2023-03-01T08:42:47;30.23;;;11.27;;
16416;SDS011;8317;52.186;5.688;2023-03-01T08:45:14;15.70;;;8.67;;
16416;SDS011;8317;52.186;5.688;2023-03-01T08:47:43;11.27;;;8.30;;
16416;SDS011;8317;52.186;5.688;2023-03-01T08:50:10;13.90;;;8.77;;
16416;SDS011;8317;52.186;5.688;2023-03-01T08:52:37;15.50;;;8.50;;
16416;SDS011;8317;52.186;5.688;2023-03-01T08:55:05;11.68;;;7.88;;
16416;SDS011;8317;52.186;5.688;2023-03-01T08:57:34;13.05;;;8.85;;
16416;SDS011;8317;52.186;5.688;2023-03-01T09:00:01;7.97;;;7.18;;
16416;SDS011;8317;52.186;5.688;2023-03-01T09:02:33;12.25;;;8.52;;
16416;SDS011;8317;52.186;5.688;2023-03-01T09:05:00;16.10;;;9.73;;
16416;SDS011;8317;52.186;5.688;2023-03-01T09:07:27;14.80;;;8.40;;
16416;SDS011;8317;52.186;5.688;2023-03-01T09:09:54;22.73;;;13.48;;
16416;SDS011;8317;52.186;5.688;2023-03-01T09:12:21;16.20;;;9.90;;
16416;SDS011;8317;52.186;5.688;2023-03-01T09:14:51;10.18;;;7.13;;
16416;SDS011;8317;52.186;5.688;2023-03-01T09:17:18;9.27;;;8.15;;
16416;SDS011;8317;52.186;5.688;2023-03-01T09:19:46;12.25;;;9.70;;
16416;SDS011;8317;52.186;5.688;2023-03-01T09:22:13;9.68;;;7.47;;
16416;SDS011;8317;52.186;5.688;2023-03-01T09:24:40;11.10;;;7.47;;
16416;SDS011;8317;52.186;5.688;2023-03-01T09:27:07;16.63;;;8.07;;
16416;SDS011;8317;52.186;5.688;2023-03-01T09:29:34;11.82;;;8.18;;
16416;SDS011;8317;52.186;5.688;2023-03-01T09:32:03;7.13;;;5.47;;
16416;SDS011;8317;52.186;5.688;2023-03-01T09:34:30;8.68;;;6.18;;
16416;SDS011;8317;52.186;5.688;2023-03-01T09:37:17;7.03;;;5.35;;
16416;SDS011;8317;52.186;5.688;2023-03-01T09:39:44;8.98;;;6.45;;
16416;SDS011;8317;52.186;5.688;2023-03-01T09:42:11;5.95;;;4.22;;
16416;SDS011;8317;52.186;5.688;2023-03-01T09:44:42;7.15;;;5.15;;
16416;SDS011;8317;52.186;5.688;2023-03-01T09:47:18;7.45;;;4.50;;
16416;SDS011;8317;52.186;5.688;2023-03-01T09:49:47;6.05;;;4.15;;
16416;SDS011;8317;52.186;5.688;2023-03-01T09:52:26;6.13;;;4.15;;
16416;SDS011;8317;52.186;5.688;2023-03-01T09:55:00;8.90;;;4.70;;
16416;SDS011;8317;52.186;5.688;2023-03-01T09:57:28;5.53;;;4.20;;
16416;SDS011;8317;52.186;5.688;2023-03-01T10:00:14;6.70;;;4.40;;
16416;SDS011;8317;52.186;5.688;2023-03-01T10:02:53;5.82;;;4.13;;
16416;SDS011;8317;52.186;5.688;2023-03-01T10:05:29;7.88;;;4.20;;
16416;SDS011;8317;52.186;5.688;2023-03-01T10:08:09;5.53;;;3.78;;
16416;SDS011;8317;52.186;5.688;2023-03-01T10:10:48;6.03;;;3.70;;
16416;SDS011;8317;52.186;5.688;2023-03-01T10:13:19;5.57;;;4.05;;
16416;SDS011;8317;52.186;5.688;2023-03-01T10:15:50;4.70;;;4.03;;
16416;SDS011;8317;52.186;5.688;2023-03-01T10:18:22;6.03;;;3.80;;
16416;SDS011;8317;52.186;5.688;2023-03-01T10:20:52;7.63;;;4.38;;
16416;SDS011;8317;52.186;5.688;2023-03-01T10:23:22;8.43;;;4.20;;
16416;SDS011;8317;52.186;5.688;2023-03-01T10:25:53;5.32;;;4.13;;
16416;SDS011;8317;52.186;5.688;2023-03-01T10:28:34;6.60;;;4.35;;
16416;SDS011;8317;52.186;5.688;2023-03-01T10:31:11;5.38;;;4.32;;
16416;SDS011;8317;52.186;5.688;2023-03-01T10:33:41;6.65;;;3.65;;
16416;SDS011;8317;52.186;5.688;2023-03-01T10:36:08;5.03;;;3.88;;
16416;SDS011;8317;52.186;5.688;2023-03-01T10:38:47;6.20;;;3.95;;
16416;SDS011;8317;52.186;5.688;2023-03-01T10:41:17;5.57;;;4.10;;
16416;SDS011;8317;52.186;5.688;2023-03-01T10:43:45;5.53;;;3.72;;
16416;SDS011;8317;52.186;5.688;2023-03-01T10:46:24;5.68;;;3.65;;
16416;SDS011;8317;52.186;5.688;2023-03-01T10:49:07;5.63;;;4.50;;
16416;SDS011;8317;52.186;5.688;2023-03-01T10:51:40;10.25;;;3.92;;
16416;SDS011;8317;52.186;5.688;2023-03-01T10:54:18;6.70;;;4.85;;
16416;SDS011;8317;52.186;5.688;2023-03-01T10:56:50;5.13;;;4.28;;
16416;SDS011;8317;52.186;5.688;2023-03-01T10:59:21;8.82;;;4.28;;
16416;SDS011;8317;52.186;5.688;2023-03-01T11:02:02;6.32;;;4.40;;
16416;SDS011;8317;52.186;5.688;2023-03-01T11:04:58;6.40;;;5.00;;
16416;SDS011;8317;52.186;5.688;2023-03-01T11:07:26;5.97;;;4.57;;
16416;SDS011;8317;52.186;5.688;2023-03-01T11:09:53;5.82;;;4.50;;
16416;SDS011;8317;52.186;5.688;2023-03-01T11:12:21;7.30;;;4.20;;
16416;SDS011;8317;52.186;5.688;2023-03-01T11:14:48;4.95;;;4.30;;
16416;SDS011;8317;52.186;5.688;2023-03-01T11:17:26;9.98;;;4.28;;
16416;SDS011;8317;52.186;5.688;2023-03-01T11:20:04;5.53;;;3.97;;
16416;SDS011;8317;52.186;5.688;2023-03-01T11:22:44;7.07;;;4.18;;
16416;SDS011;8317;52.186;5.688;2023-03-01T11:25:13;5.22;;;3.90;;
16416;SDS011;8317;52.186;5.688;2023-03-01T11:27:41;6.55;;;4.20;;
16416;SDS011;8317;52.186;5.688;2023-03-01T11:30:13;5.93;;;3.80;;
16416;SDS011;8317;52.186;5.688;2023-03-01T11:32:47;4.82;;;3.60;;
16416;SDS011;8317;52.186;5.688;2023-03-01T11:35:21;5.70;;;4.50;;
16416;SDS011;8317;52.186;5.688;2023-03-01T11:37:54;5.43;;;3.70;;
16416;SDS011;8317;52.186;5.688;2023-03-01T11:40:29;6.43;;;4.13;;
16416;SDS011;8317;52.186;5.688;2023-03-01T11:43:04;6.93;;;3.90;;
16416;SDS011;8317;52.186;5.688;2023-03-01T11:45:39;6.57;;;4.38;;
16416;SDS011;8317;52.186;5.688;2023-03-01T11:48:24;4.38;;;3.65;;
16416;SDS011;8317;52.186;5.688;2023-03-01T11:51:07;8.02;;;4.75;;
16416;SDS011;8317;52.186;5.688;2023-03-01T11:53:47;8.63;;;5.32;;
16416;SDS011;8317;52.186;5.688;2023-03-01T11:56:25;4.95;;;4.18;;
16416;SDS011;8317;52.186;5.688;2023-03-01T11:59:02;7.30;;;5.75;;
16416;SDS011;8317;52.186;5.688;2023-03-01T12:01:54;5.32;;;4.10;;
16416;SDS011;8317;52.186;5.688;2023-03-01T12:04:51;4.72;;;4.00;;
16416;SDS011;8317;52.186;5.688;2023-03-01T12:07:32;5.57;;;4.47;;
16416;SDS011;8317;52.186;5.688;2023-03-01T12:10:15;5.57;;;4.38;;
16416;SDS011;8317;52.186;5.688;2023-03-01T12:12:53;6.07;;;4.07;;
16416;SDS011;8317;52.186;5.688;2023-03-01T12:15:39;5.97;;;4.40;;
16416;SDS011;8317;52.186;5.688;2023-03-01T12:18:32;6.55;;;5.63;;
16416;SDS011;8317;52.186;5.688;2023-03-01T12:21:19;6.25;;;5.40;;
16416;SDS011;8317;52.186;5.688;2023-03-01T12:24:08;7.25;;;4.65;;
16416;SDS011;8317;52.186;5.688;2023-03-01T12:26:48;6.50;;;4.60;;
16416;SDS011;8317;52.186;5.688;2023-03-01T12:29:28;7.55;;;4.70;;
16416;SDS011;8317;52.186;5.688;2023-03-01T12:32:02;7.72;;;4.45;;
16416;SDS011;8317;52.186;5.688;2023-03-01T12:37:35;9.55;;;6.75;;
16416;SDS011;8317;52.186;5.688;2023-03-01T12:40:15;10.25;;;6.03;;
16416;SDS011;8317;52.186;5.688;2023-03-01T12:42:56;11.45;;;6.88;;
16416;SDS011;8317;52.186;5.688;2023-03-01T12:45:44;8.38;;;5.57;;
16416;SDS011;8317;52.186;5.688;2023-03-01T12:48:25;7.68;;;4.63;;
16416;SDS011;8317;52.186;5.688;2023-03-01T12:51:03;9.18;;;6.03;;
16416;SDS011;8317;52.186;5.688;2023-03-01T12:53:36;8.55;;;4.78;;
16416;SDS011;8317;52.186;5.688;2023-03-01T12:56:08;9.82;;;7.10;;
16416;SDS011;8317;52.186;5.688;2023-03-01T12:58:39;6.30;;;4.20;;
16416;SDS011;8317;52.186;5.688;2023-03-01T13:01:18;6.25;;;5.57;;
16416;SDS011;8317;52.186;5.688;2023-03-01T13:03:56;9.48;;;7.07;;
16416;SDS011;8317;52.186;5.688;2023-03-01T13:06:40;9.43;;;5.13;;
16416;SDS011;8317;52.186;5.688;2023-03-01T13:09:19;13.55;;;9.45;;
16416;SDS011;8317;52.186;5.688;2023-03-01T13:11:51;7.20;;;5.55;;
16416;SDS011;8317;52.186;5.688;2023-03-01T13:14:37;6.00;;;4.43;;
16416;SDS011;8317;52.186;5.688;2023-03-01T13:17:31;7.05;;;5.15;;
16416;SDS011;8317;52.186;5.688;2023-03-01T13:19:59;5.10;;;4.60;;
16416;SDS011;8317;52.186;5.688;2023-03-01T13:22:27;5.10;;;4.40;;
16416;SDS011;8317;52.186;5.688;2023-03-01T13:25:01;6.80;;;5.70;;
16416;SDS011;8317;52.186;5.688;2023-03-01T13:27:39;8.20;;;6.13;;
16416;SDS011;8317;52.186;5.688;2023-03-01T13:30:38;7.07;;;5.25;;
16416;SDS011;8317;52.186;5.688;2023-03-01T13:33:33;5.07;;;4.15;;
16416;SDS011;8317;52.186;5.688;2023-03-01T13:36:08;7.50;;;4.30;;
16416;SDS011;8317;52.186;5.688;2023-03-01T13:38:46;6.13;;;5.07;;
16416;SDS011;8317;52.186;5.688;2023-03-01T13:41:14;7.25;;;4.10;;
16416;SDS011;8317;52.186;5.688;2023-03-01T13:43:45;4.97;;;4.20;;
16416;SDS011;8317;52.186;5.688;2023-03-01T13:46:16;5.82;;;4.07;;
16416;SDS011;8317;52.186;5.688;2023-03-01T13:48:47;5.50;;;4.75;;
16416;SDS011;8317;52.186;5.688;2023-03-01T13:51:20;5.85;;;4.45;;
16416;SDS011;8317;52.186;5.688;2023-03-01T13:53:49;10.27;;;7.18;;
16416;SDS011;8317;52.186;5.688;2023-03-01T13:56:18;8.35;;;4.85;;
16416;SDS011;8317;52.186;5.688;2023-03-01T13:58:52;6.88;;;5.22;;
16416;SDS011;8317;52.186;5.688;2023-03-01T14:01:21;11.23;;;6.95;;
16416;SDS011;8317;52.186;5.688;2023-03-01T14:03:51;4.68;;;4.13;;
16416;SDS011;8317;52.186;5.688;2023-03-01T14:06:20;5.15;;;4.63;;
16416;SDS011;8317;52.186;5.688;2023-03-01T14:08:49;5.88;;;4.28;;
16416;SDS011;8317;52.186;5.688;2023-03-01T14:11:32;7.13;;;4.63;;
16416;SDS011;8317;52.186;5.688;2023-03-01T14:14:20;6.30;;;5.05;;
16416;SDS011;8317;52.186;5.688;2023-03-01T14:17:04;6.70;;;4.75;;
16416;SDS011;8317;52.186;5.688;2023-03-01T14:19:41;5.82;;;4.50;;
16416;SDS011;8317;52.186;5.688;2023-03-01T14:22:13;6.60;;;4.72;;
16416;SDS011;8317;52.186;5.688;2023-03-01T14:24:46;6.57;;;4.10;;
16416;SDS011;8317;52.186;5.688;2023-03-01T14:27:15;5.72;;;4.57;;
16416;SDS011;8317;52.186;5.688;2023-03-01T14:29:45;6.03;;;4.53;;
16416;SDS011;8317;52.186;5.688;2023-03-01T14:32:21;8.75;;;4.70;;
16416;SDS011;8317;52.186;5.688;2023-03-01T14:34:51;6.60;;;4.32;;
16416;SDS011;8317;52.186;5.688;2023-03-01T14:37:19;6.85;;;4.30;;
16416;SDS011;8317;52.186;5.688;2023-03-01T14:39:48;8.45;;;4.47;;
16416;SDS011;8317;52.186;5.688;2023-03-01T14:42:15;6.53;;;4.82;;
16416;SDS011;8317;52.186;5.688;2023-03-01T14:44:45;7.18;;;4.40;;
16416;SDS011;8317;52.186;5.688;2023-03-01T14:47:15;6.95;;;4.32;;
16416;SDS011;8317;52.186;5.688;2023-03-01T14:49:49;5.00;;;4.05;;
16416;SDS011;8317;52.186;5.688;2023-03-01T14:52:22;6.72;;;4.28;;
16416;SDS011;8317;52.186;5.688;2023-03-01T14:54:54;5.63;;;4.63;;
16416;SDS011;8317;52.186;5.688;2023-03-01T14:57:23;6.03;;;4.88;;
16416;SDS011;8317;52.186;5.688;2023-03-01T14:59:52;9.13;;;4.80;;
16416;SDS011;8317;52.186;5.688;2023-03-01T15:02:21;4.60;;;3.80;;
16416;SDS011;8317;52.186;5.688;2023-03-01T15:04:50;5.53;;;4.38;;
16416;SDS011;8317;52.186;5.688;2023-03-01T15:07:21;7.00;;;4.32;;
16416;SDS011;8317;52.186;5.688;2023-03-01T15:09:50;6.90;;;4.20;;
16416;SDS011;8317;52.186;5.688;2023-03-01T15:12:25;5.93;;;4.07;;
16416;SDS011;8317;52.186;5.688;2023-03-01T15:15:18;7.90;;;4.88;;